Time;durP1;ratioP1;P1;durP2;ratioP2;P2;SDS_P1;SDS_P2;PMS_P1;PMS_P2;Temp;Humidity;BMP_temperature;BMP_pressure;BME280_temperature;BME280_humidity;BME280_pressure;Samples;Min_cycle;Max_cycle;Signal;HPM_P1;HPM_P2
2023/10/30 00:00:18;;;;;;;2.33;1.30;;;;;;;14.89;nan;98387.22;4905684;29;20285;-77
2023/10/30 00:02:44;;;;;;;1.00;0.90;;;;;;;14.90;nan;98396.81;4902578;29;20222;-77
2023/10/30 00:05:09;;;;;;;2.40;1.20;;;;;;;14.92;nan;98391.38;4906059;29;20198;-76
2023/10/30 00:07:34;;;;;;;1.93;1.10;;;;;;;14.92;nan;98392.22;4907558;29;20213;-77
2023/10/30 00:10:00;;;;;;;3.10;1.10;;;;;;;14.93;nan;98383.31;4910032;29;20283;-81
2023/10/30 00:12:25;;;;;;;1.30;1.20;;;;;;;14.96;nan;98387.44;4908491;29;20277;-77
2023/10/30 00:14:51;;;;;;;0.97;0.90;;;;;;;14.96;nan;98392.72;4906956;29;20198;-78
2023/10/30 00:17:16;;;;;;;1.20;1.10;;;;;;;14.96;nan;98395.34;4911104;29;20202;-79
2023/10/30 00:19:42;;;;;;;1.37;1.00;;;;;;;14.97;nan;98402.31;4894497;29;20199;-81
2023/10/30 00:22:11;;;;;;;1.80;0.70;;;;;;;14.97;nan;98400.50;4909201;29;20267;-81
2023/10/30 00:24:37;;;;;;;0.88;0.70;;;;;;;14.98;nan;98401.31;4913864;29;20199;-78
2023/10/30 00:27:02;;;;;;;0.95;0.73;;;;;;;15.00;nan;98388.78;4910664;29;20640;-78
2023/10/30 00:29:28;;;;;;;1.13;1.03;;;;;;;15.00;nan;98378.22;4909644;29;20202;-77
2023/10/30 00:31:54;;;;;;;1.17;0.87;;;;;;;15.01;nan;98386.00;4910107;29;21446;-78
2023/10/30 00:34:19;;;;;;;1.17;0.90;;;;;;;15.02;nan;98400.03;4904065;29;20257;-77
2023/10/30 00:36:45;;;;;;;1.20;0.73;;;;;;;15.02;nan;98389.47;4892571;29;20221;-78
2023/10/30 00:39:10;;;;;;;1.47;0.70;;;;;;;15.01;nan;98393.94;4910616;29;20202;-80
2023/10/30 00:41:35;;;;;;;2.40;0.80;;;;;;;15.01;nan;98395.72;4909415;29;20272;-82
2023/10/30 00:44:01;;;;;;;1.20;0.80;;;;;;;15.01;nan;98395.72;4910722;29;20207;-79
2023/10/30 00:46:26;;;;;;;0.80;0.70;;;;;;;15.02;nan;98402.69;4912012;29;20234;-82
2023/10/30 00:48:52;;;;;;;0.93;0.70;;;;;;;15.01;nan;98401.00;4911034;29;20218;-77
2023/10/30 00:51:17;;;;;;;1.03;0.83;;;;;;;15.00;nan;98400.19;4910361;29;20202;-77
2023/10/30 00:53:42;;;;;;;0.97;0.77;;;;;;;14.99;nan;98403.00;4891024;29;20202;-80
2023/10/30 00:56:08;;;;;;;0.90;0.80;;;;;;;14.97;nan;98400.50;4910858;29;20202;-77
2023/10/30 00:58:34;;;;;;;1.10;0.93;;;;;;;;;;4892099;29;20238;-77
2023/10/30 01:00:59;;;;;;;0.80;0.70;;;;;;;14.92;nan;98408.06;4912290;29;20218;-76
2023/10/30 01:03:25;;;;;;;1.10;0.80;;;;;;;14.93;nan;98403.59;4891753;29;20214;-77
2023/10/30 01:05:58;;;;;;;2.10;0.83;;;;;;;14.92;nan;98410.72;4895084;29;20536;-81
2023/10/30 01:08:25;;;;;;;1.10;0.90;;;;;;;14.91;nan;98416.16;4909698;29;20681;-79
2023/10/30 01:10:51;;;;;;;1.40;1.10;;;;;;;14.86;nan;98408.69;4892293;29;20210;-77
2023/10/30 01:13:17;;;;;;;0.85;0.80;;;;;;;14.87;nan;98406.88;4908132;29;20206;-78
2023/10/30 01:15:43;;;;;;;1.20;0.82;;;;;;;14.85;nan;98385.88;4913274;29;20186;-77
2023/10/30 01:18:08;;;;;;;1.83;1.73;;;;;;;14.86;nan;98394.66;4910420;29;20206;-80
2023/10/30 01:20:38;;;;;;;0.87;0.80;;;;;;;14.87;nan;98396.31;4909685;29;20186;-82
2023/10/30 01:23:04;;;;;;;1.00;0.90;;;;;;;14.86;nan;98392.84;4908038;29;20209;-77
2023/10/30 01:25:29;;;;;;;3.40;0.90;;;;;;;14.86;nan;98392.84;4911857;29;20240;-77
2023/10/30 01:27:55;;;;;;;1.47;1.10;;;;;;;14.83;nan;98388.69;4909444;29;20297;-82
2023/10/30 01:30:20;;;;;;;1.93;0.73;;;;;;;14.82;nan;98394.09;4906224;29;20213;-77
2023/10/30 01:32:46;;;;;;;1.10;0.80;;;;;;;14.79;nan;98386.50;4908756;29;20274;-77
2023/10/30 01:35:11;;;;;;;2.80;1.23;;;;;;;14.76;nan;98395.56;4892249;29;20692;-76
2023/10/30 01:37:36;;;;;;;4.47;1.00;;;;;;;14.72;nan;98386.28;4912807;29;20197;-74
2023/10/30 01:40:02;;;;;;;1.57;1.10;;;;;;;14.69;nan;98391.03;4885825;29;20203;-76
2023/10/30 01:42:28;;;;;;;0.90;0.80;;;;;;;14.67;nan;98393.84;4909638;29;20206;-80
2023/10/30 01:44:55;;;;;;;1.40;1.00;;;;;;;14.65;nan;98395.81;4891348;29;20683;-79
2023/10/30 01:47:21;;;;;;;1.65;1.00;;;;;;;14.66;nan;98401.91;4906260;29;20203;-80
2023/10/30 01:49:48;;;;;;;2.20;1.60;;;;;;;14.59;nan;98386.69;4886290;29;20410;-77
2023/10/30 01:52:15;;;;;;;1.03;0.90;;;;;;;14.51;nan;98378.66;4905343;29;20697;-77
2023/10/30 01:54:42;;;;;;;3.15;1.25;;;;;;;14.44;nan;98377.59;4908427;29;20198;-81
2023/10/30 01:57:08;;;;;;;1.50;1.08;;;;;;;14.37;nan;98371.28;4908431;29;20293;-79
2023/10/30 01:59:33;;;;;;;1.43;1.33;;;;;;;14.32;nan;98363.81;4891666;29;20346;-80
2023/10/30 02:01:59;;;;;;;1.10;1.00;;;;;;;14.28;nan;98366.88;4908844;29;20305;-80
2023/10/30 02:04:25;;;;;;;1.53;0.80;;;;;;;14.25;nan;98373.31;4911145;29;20190;-80
2023/10/30 02:06:50;;;;;;;3.13;1.10;;;;;;;14.20;nan;98378.19;4890021;29;20266;-76
2023/10/30 02:09:16;;;;;;;1.23;1.03;;;;;;;14.15;nan;98372.56;4906271;29;20462;-77
2023/10/30 02:11:41;;;;;;;2.37;1.27;;;;;;;14.10;nan;98374.84;4905561;29;20217;-76
2023/10/30 02:14:06;;;;;;;3.33;1.10;;;;;;;14.06;nan;98374.28;4909019;29;20207;-77
2023/10/30 02:16:32;;;;;;;1.10;0.90;;;;;;;14.06;nan;98358.44;4891039;29;20206;-76
2023/10/30 02:18:57;;;;;;;1.73;1.07;;;;;;;14.07;nan;98353.97;4890845;29;20245;-76
2023/10/30 02:21:24;;;;;;;1.57;0.97;;;;;;;14.09;nan;98350.22;4904600;29;20237;-77
2023/10/30 02:23:49;;;;;;;2.13;1.48;;;;;;;14.09;nan;98344.09;4903460;29;20241;-76
2023/10/30 02:26:14;;;;;;;1.17;0.90;;;;;;;14.07;nan;98348.69;4905614;29;20313;-81
2023/10/30 02:28:40;;;;;;;2.33;0.90;;;;;;;14.06;nan;98347.88;4905301;29;20233;-79
2023/10/30 02:31:06;;;;;;;1.43;1.33;;;;;;;;;;4888857;29;20250;-82
2023/10/30 02:33:31;;;;;;;1.70;1.00;;;;;;;14.02;nan;98330.69;4898630;29;20293;-82
2023/10/30 02:35:57;;;;;;;1.03;0.80;;;;;;;13.97;nan;98335.59;4887254;29;20187;-79
2023/10/30 02:38:22;;;;;;;2.10;1.20;;;;;;;13.93;nan;98337.72;4906368;29;20207;-76
2023/10/30 02:40:48;;;;;;;1.17;0.90;;;;;;;13.97;nan;98337.41;4891413;29;20213;-78
2023/10/30 02:43:13;;;;;;;2.90;1.17;;;;;;;13.98;nan;98336.41;4906771;29;20252;-81
2023/10/30 02:45:38;;;;;;;1.90;1.20;;;;;;;14.00;nan;98329.19;4889634;29;20221;-77
2023/10/30 02:48:04;;;;;;;1.17;1.00;;;;;;;14.03;nan;98321.78;4902634;29;20210;-80
2023/10/30 02:50:30;;;;;;;1.23;0.82;;;;;;;14.06;nan;98323.28;4905884;29;20225;-76
2023/10/30 02:52:56;;;;;;;0.90;0.90;;;;;;;14.06;nan;98320.66;4904809;29;20210;-78
2023/10/30 02:55:23;;;;;;;1.33;1.15;;;;;;;14.06;nan;98315.38;4904413;29;20796;-80
2023/10/30 02:57:48;;;;;;;1.50;0.97;;;;;;;14.07;nan;98311.72;4909371;29;20244;-82
2023/10/30 03:00:14;;;;;;;1.80;1.30;;;;;;;14.05;nan;98311.91;4885437;29;20673;-80
2023/10/30 03:02:39;;;;;;;1.50;1.27;;;;;;;14.05;nan;98313.72;4903330;29;20217;-79
2023/10/30 03:05:05;;;;;;;2.30;1.30;;;;;;;14.05;nan;98308.44;4884335;29;20523;-76
2023/10/30 03:07:31;;;;;;;1.65;1.00;;;;;;;14.06;nan;98307.44;4899857;29;20230;-78
2023/10/30 03:09:57;;;;;;;1.90;1.20;;;;;;;14.05;nan;98316.38;4898344;29;20213;-78
2023/10/30 03:12:22;;;;;;;1.20;1.10;;;;;;;14.03;nan;98313.03;4902554;29;20321;-80
2023/10/30 03:14:48;;;;;;;1.20;1.10;;;;;;;14.05;nan;98308.44;4902087;29;20207;-77
2023/10/30 03:17:13;;;;;;;1.43;1.20;;;;;;;14.05;nan;98308.44;4901194;29;20906;-77
2023/10/30 03:19:39;;;;;;;1.93;1.00;;;;;;;14.08;nan;98313.41;4894211;29;20772;-76
2023/10/30 03:22:04;;;;;;;1.80;1.00;;;;;;;14.04;nan;98309.41;4897616;29;20608;-77
2023/10/30 03:24:30;;;;;;;1.60;1.00;;;;;;;14.04;nan;98312.03;4897442;29;20217;-77
2023/10/30 03:26:57;;;;;;;4.60;1.47;;;;;;;13.98;nan;98307.38;4905791;29;20229;-74
2023/10/30 03:29:22;;;;;;;1.75;1.20;;;;;;;13.95;nan;98311.16;4898165;29;20559;-75
2023/10/30 03:31:52;;;;;;;1.00;0.90;;;;;;;13.88;nan;98296.88;4897300;29;20301;-75
2023/10/30 03:34:18;;;;;;;2.05;1.00;;;;;;;13.83;nan;98294.72;4896157;29;20191;-78
2023/10/30 03:36:44;;;;;;;1.60;0.90;;;;;;;13.82;nan;98294.84;4881201;29;20558;-75
2023/10/30 03:39:09;;;;;;;1.10;1.00;;;;;;;13.81;nan;98298.47;4899735;29;20564;-77
2023/10/30 03:41:37;;;;;;;1.48;0.93;;;;;;;13.80;nan;98305.56;4903257;29;20245;-76
2023/10/30 03:44:02;;;;;;;0.93;0.82;;;;;;;13.83;nan;98310.56;4906659;29;20318;-77
2023/10/30 03:46:30;;;;;;;0.70;0.70;;;;;;;13.84;nan;98306.91;4881211;29;20313;-77
2023/10/30 03:48:56;;;;;;;1.00;0.90;;;;;;;13.83;nan;98309.72;4904460;29;20320;-77
2023/10/30 03:51:24;;;;;;;2.08;1.08;;;;;;;13.83;nan;98305.28;4888645;29;20939;-77
2023/10/30 03:53:49;;;;;;;1.30;0.90;;;;;;;13.85;nan;98298.03;4912673;29;20205;-77
2023/10/30 03:56:15;;;;;;;1.77;1.17;;;;;;;13.85;nan;98284.84;4914591;29;20204;-78
2023/10/30 03:58:40;;;;;;;1.30;1.20;;;;;;;13.83;nan;98259.56;4907270;29;20194;-77
2023/10/30 04:01:06;;;;;;;1.30;0.97;;;;;;;13.83;nan;98251.66;4914485;29;20205;-76
2023/10/30 04:03:32;;;;;;;3.25;1.58;;;;;;;13.82;nan;98256.09;4910275;29;20333;-76
2023/10/30 04:06:02;;;;;;;1.57;1.07;;;;;;;13.81;nan;98249.16;4910990;29;20490;-77
2023/10/30 04:08:27;;;;;;;1.20;0.90;;;;;;;13.80;nan;98268.63;4906579;29;20206;-77
2023/10/30 04:10:52;;;;;;;5.10;1.37;;;;;;;13.80;nan;98281.81;4913177;29;20225;-77
2023/10/30 04:13:18;;;;;;;0.80;0.80;;;;;;;13.77;nan;98279.47;4907297;29;20228;-77
2023/10/30 04:15:44;;;;;;;1.93;1.23;;;;;;;13.73;nan;98294.78;4911416;29;20216;-78
2023/10/30 04:18:10;;;;;;;2.80;1.30;;;;;;;13.73;nan;98301.88;4914005;29;20461;-77
2023/10/30 04:20:35;;;;;;;1.63;1.10;;;;;;;13.70;nan;98295.06;4913896;29;20217;-77
2023/10/30 04:23:00;;;;;;;3.03;1.10;;;;;;;13.69;nan;98290.78;4905396;29;20453;-77
2023/10/30 04:25:26;;;;;;;5.13;1.00;;;;;;;13.69;nan;98298.69;4914310;29;20205;-77
2023/10/30 04:27:53;;;;;;;1.50;0.90;;;;;;;13.71;nan;98298.53;4908930;29;20201;-77
2023/10/30 04:30:19;;;;;;;1.08;0.98;;;;;;;13.74;nan;98298.22;4911893;29;20210;-78
2023/10/30 04:32:45;;;;;;;1.70;1.30;;;;;;;13.77;nan;98297.97;4908487;29;20736;-77
2023/10/30 04:35:10;;;;;;;1.97;1.00;;;;;;;13.80;nan;98300.28;4908633;29;20213;-76
2023/10/30 04:37:36;;;;;;;1.20;1.00;;;;;;;13.82;nan;98292.22;4907265;29;20233;-76
2023/10/30 04:40:01;;;;;;;0.97;0.80;;;;;;;13.84;nan;98290.25;4904430;29;20235;-76
2023/10/30 04:42:28;;;;;;;1.10;1.00;;;;;;;13.82;nan;98287.75;4910048;29;20202;-76
2023/10/30 04:44:55;;;;;;;2.75;1.10;;;;;;;13.81;nan;98272.91;4912731;29;20684;-77
2023/10/30 04:47:20;;;;;;;1.38;1.02;;;;;;;13.79;nan;98279.31;4905762;29;20218;-77
2023/10/30 04:49:46;;;;;;;4.60;1.30;;;;;;;13.80;nan;98281.81;4905847;29;20273;-77
2023/10/30 04:52:11;;;;;;;1.17;1.07;;;;;;;13.79;nan;98277.50;4907098;29;20215;-78
2023/10/30 04:54:37;;;;;;;1.43;0.90;;;;;;;13.80;nan;98278.31;4903165;29;20255;-77
2023/10/30 04:57:03;;;;;;;0.90;0.80;;;;;;;13.79;nan;98288.06;4909825;29;20320;-77
2023/10/30 04:59:28;;;;;;;2.80;1.20;;;;;;;13.80;nan;98283.59;4909376;29;20229;-77
2023/10/30 05:01:53;;;;;;;2.10;1.07;;;;;;;13.79;nan;98277.50;4909582;29;20476;-77
2023/10/30 05:04:19;;;;;;;1.80;1.20;;;;;;;13.79;nan;98288.06;4899084;29;20230;-78
2023/10/30 05:06:46;;;;;;;2.80;1.27;;;;;;;13.80;nan;98281.81;4903378;29;20913;-76
2023/10/30 05:09:12;;;;;;;1.75;1.40;;;;;;;13.79;nan;98292.50;4899554;29;20213;-77
2023/10/30 05:11:41;;;;;;;1.40;1.08;;;;;;;13.78;nan;98289.06;4903480;29;20206;-77
2023/10/30 05:14:07;;;;;;;1.77;0.90;;;;;;;13.77;nan;98283.91;4898940;29;20229;-76
2023/10/30 05:16:33;;;;;;;1.10;1.00;;;;;;;13.74;nan;98290.31;4901979;29;20549;-76
2023/10/30 05:18:59;;;;;;;1.20;1.10;;;;;;;13.72;nan;98279.94;4905339;29;20457;-76
2023/10/30 05:21:24;;;;;;;1.73;1.10;;;;;;;13.69;nan;98271.47;4907591;29;20211;-76
2023/10/30 05:23:49;;;;;;;1.47;1.17;;;;;;;13.68;nan;98275.91;4903412;29;20221;-77
2023/10/30 05:26:15;;;;;;;1.37;1.10;;;;;;;13.66;nan;98282.31;4908406;29;20213;-79
2023/10/30 05:28:40;;;;;;;2.17;1.30;;;;;;;13.62;nan;98278.34;4906965;29;20217;-78
2023/10/30 05:31:06;;;;;;;4.13;1.53;;;;;;;13.58;nan;98284.88;4909387;29;20211;-77
2023/10/30 05:33:32;;;;;;;1.93;1.00;;;;;;;13.54;nan;98275.63;4904761;29;20202;-78
2023/10/30 05:35:57;;;;;;;4.87;1.30;;;;;;;13.49;nan;98281.31;4907011;29;20450;-75
2023/10/30 05:38:23;;;;;;;24.23;2.67;;;;;;;13.44;nan;98267.75;4905100;29;20201;-75
2023/10/30 05:40:48;;;;;;;2.37;1.60;;;;;;;13.37;nan;98270.16;4908436;29;20258;-78
2023/10/30 05:43:14;;;;;;;3.57;1.43;;;;;;;13.33;nan;98270.59;4905743;29;20202;-78
2023/10/30 05:45:40;;;;;;;1.30;1.10;;;;;;;13.25;nan;98260.75;4909096;29;20206;-77
2023/10/30 05:48:11;;;;;;;2.67;1.60;;;;;;;13.17;nan;98266.75;4896791;29;20203;-77
2023/10/30 05:50:38;;;;;;;1.40;1.10;;;;;;;13.10;nan;98281.53;4900746;29;20805;-77
2023/10/30 05:53:04;;;;;;;2.27;1.10;;;;;;;13.03;nan;98278.63;4905272;29;20215;-77
2023/10/30 05:55:30;;;;;;;2.73;1.50;;;;;;;13.00;nan;98284.19;4908534;29;20206;-78
2023/10/30 05:57:56;;;;;;;1.20;1.10;;;;;;;12.95;nan;98273.25;4906299;29;20233;-77
2023/10/30 06:00:23;;;;;;;1.58;1.10;;;;;;;12.91;nan;98269.25;4907606;29;20207;-79
2023/10/30 06:02:49;;;;;;;1.50;1.40;;;;;;;12.86;nan;98260.97;4906152;29;20519;-77
2023/10/30 06:05:15;;;;;;;2.33;1.42;;;;;;;12.80;nan;98254.47;4913548;29;20681;-78
2023/10/30 06:07:41;;;;;;;2.20;1.57;;;;;;;12.72;nan;98254.34;4889481;29;20209;-77
2023/10/30 06:10:10;;;;;;;2.85;1.60;;;;;;;12.67;nan;98255.78;4905729;29;20711;-77
2023/10/30 06:12:37;;;;;;;2.40;1.80;;;;;;;12.65;nan;98260.34;4904149;29;20633;-77
2023/10/30 06:15:02;;;;;;;2.45;1.77;;;;;;;12.62;nan;98259.66;4900930;29;20198;-78
2023/10/30 06:17:28;;;;;;;3.30;1.60;;;;;;;12.62;nan;98266.72;4906460;29;20246;-77
2023/10/30 06:19:53;;;;;;;1.80;1.70;;;;;;;12.60;nan;98269.50;4905516;29;20213;-78
2023/10/30 06:22:18;;;;;;;2.70;1.97;;;;;;;12.61;nan;98259.81;4897731;29;20482;-78
2023/10/30 06:24:44;;;;;;;1.67;1.57;;;;;;;12.62;nan;98262.28;4897924;29;20269;-77
2023/10/30 06:27:09;;;;;;;3.20;2.03;;;;;;;12.66;nan;98267.25;4901751;29;20746;-78
2023/10/30 06:29:35;;;;;;;2.57;2.07;;;;;;;12.67;nan;98268.94;4904444;29;20194;-78
2023/10/30 06:32:01;;;;;;;2.40;2.20;;;;;;;12.69;nan;98266.97;4901364;29;20203;-77
2023/10/30 06:34:26;;;;;;;2.67;1.93;;;;;;;12.71;nan;98265.84;4912165;29;20233;-78
2023/10/30 06:36:51;;;;;;;2.80;2.40;;;;;;;12.74;nan;98264.72;4910547;29;20198;-77
2023/10/30 06:39:20;;;;;;;3.00;2.70;;;;;;;12.77;nan;98265.31;4911106;29;20201;-76
2023/10/30 06:41:48;;;;;;;2.03;1.80;;;;;;;12.79;nan;98262.50;4904118;29;20237;-77
2023/10/30 06:44:14;;;;;;;2.95;1.92;;;;;;;12.82;nan;98264.84;4903053;29;20198;-78
2023/10/30 06:46:40;;;;;;;2.30;2.00;;;;;;;12.83;nan;98263.88;4909989;29;20228;-78
2023/10/30 06:49:05;;;;;;;2.50;2.30;;;;;;;12.85;nan;98269.81;4907539;29;20230;-78
2023/10/30 06:51:31;;;;;;;2.20;2.00;;;;;;;12.87;nan;98261.78;4907548;29;20202;-78
2023/10/30 06:53:56;;;;;;;2.87;2.30;;;;;;;12.88;nan;98266.91;4901470;29;20700;-77
2023/10/30 06:56:21;;;;;;;3.00;2.37;;;;;;;12.89;nan;98260.66;4914145;29;20190;-77
2023/10/30 06:58:47;;;;;;;3.10;2.13;;;;;;;12.86;nan;98255.69;4907453;29;20206;-77
2023/10/30 07:01:12;;;;;;;1.93;1.80;;;;;;;12.89;nan;98259.84;4906326;29;20202;-77
2023/10/30 07:03:37;;;;;;;2.50;1.80;;;;;;;12.92;nan;98257.72;4905858;29;20694;-77
2023/10/30 07:06:03;;;;;;;2.23;1.87;;;;;;;12.98;nan;98258.94;4909364;29;20202;-77
2023/10/30 07:08:29;;;;;;;1.67;1.57;;;;;;;13.07;nan;98260.72;4905521;29;20206;-78
2023/10/30 07:10:55;;;;;;;3.87;1.80;;;;;;;13.14;nan;98263.59;4910111;29;20470;-77
2023/10/30 07:13:22;;;;;;;2.05;1.70;;;;;;;13.21;nan;98260.22;4906929;29;20211;-79
2023/10/30 07:15:47;;;;;;;1.75;1.65;;;;;;;13.30;nan;98266.44;4904384;29;20195;-77
2023/10/30 07:18:12;;;;;;;2.20;1.80;;;;;;;13.38;nan;98269.19;4905856;29;20277;-77
2023/10/30 07:20:38;;;;;;;2.70;2.50;;;;;;;13.45;nan;98275.53;4913933;29;20396;-77
2023/10/30 07:23:03;;;;;;;4.00;3.60;;;;;;;13.50;nan;98267.16;4901764;29;20489;-77
2023/10/30 07:25:29;;;;;;;3.63;3.00;;;;;;;13.53;nan;98266.88;4901575;29;20210;-77
2023/10/30 07:27:54;;;;;;;2.20;1.80;;;;;;;13.52;nan;98264.38;4908358;29;20206;-77
2023/10/30 07:30:20;;;;;;;6.97;2.50;;;;;;;13.53;nan;98243.13;4909696;29;20737;-77
2023/10/30 07:32:48;;;;;;;1.90;1.70;;;;;;;13.58;nan;98263.78;4909678;29;20614;-78
2023/10/30 07:35:13;;;;;;;3.28;2.08;;;;;;;13.63;nan;98277.34;4904674;29;20261;-77
2023/10/30 07:37:39;;;;;;;2.20;1.83;;;;;;;13.67;nan;98274.28;4902719;29;20214;-78
2023/10/30 07:40:05;;;;;;;3.80;2.27;;;;;;;13.73;nan;98272.84;4904351;29;20217;-77
2023/10/30 07:42:31;;;;;;;2.10;1.88;;;;;;;13.78;nan;98275.84;4907704;29;20234;-76
2023/10/30 07:44:56;;;;;;;2.40;2.20;;;;;;;13.84;nan;98264.69;4909260;29;20777;-77
2023/10/30 07:47:21;;;;;;;3.10;2.67;;;;;;;13.97;nan;98269.59;4904939;29;20205;-77
2023/10/30 07:49:47;;;;;;;6.03;5.43;;;;;;;14.10;nan;98190.81;4903930;29;20226;-76
2023/10/30 07:52:13;;;;;;;4.13;2.33;;;;;;;14.23;nan;98264.38;4903220;29;20281;-77
2023/10/30 07:54:39;;;;;;;3.38;2.40;;;;;;;14.34;nan;98266.75;4904857;29;20205;-76
2023/10/30 07:57:04;;;;;;;4.00;2.93;;;;;;;14.36;nan;98264.75;4902441;29;20194;-76
2023/10/30 07:59:32;;;;;;;4.03;3.60;;;;;;;14.41;nan;98271.41;4907524;29;20209;-77
2023/10/30 08:01:58;;;;;;;3.75;3.42;;;;;;;14.35;nan;98257.84;4903973;29;20218;-77
2023/10/30 08:04:23;;;;;;;3.73;3.23;;;;;;;14.34;nan;98261.47;4903261;29;20202;-77
2023/10/30 08:06:49;;;;;;;4.70;3.83;;;;;;;14.38;nan;98261.97;4904297;29;20218;-76
2023/10/30 08:09:16;;;;;;;6.07;4.63;;;;;;;14.42;nan;98263.34;4905210;29;20608;-76
2023/10/30 08:11:42;;;;;;;6.32;3.40;;;;;;;14.46;nan;98253.28;4904785;29;20206;-77
2023/10/30 08:14:07;;;;;;;4.55;3.08;;;;;;;14.50;nan;98254.63;4908776;29;20342;-76
2023/10/30 08:16:34;;;;;;;16.43;3.97;;;;;;;14.53;nan;98257.00;4906334;29;20285;-76
2023/10/30 08:19:00;;;;;;;4.85;4.30;;;;;;;14.52;nan;98253.50;4906892;29;20686;-76
2023/10/30 08:21:26;;;;;;;5.30;3.70;;;;;;;14.51;nan;98256.28;4901480;29;20213;-77
2023/10/30 08:23:51;;;;;;;4.30;3.83;;;;;;;14.49;nan;98255.59;4905234;29;20461;-76
2023/10/30 08:26:16;;;;;;;4.60;3.77;;;;;;;14.51;nan;98251.00;4899616;29;20836;-76
2023/10/30 08:28:44;;;;;;;6.93;4.27;;;;;;;14.47;nan;98249.66;4906331;29;20205;-76
2023/10/30 08:31:10;;;;;;;6.45;3.17;;;;;;;14.47;nan;98245.19;4905004;29;20217;-78
2023/10/30 08:33:36;;;;;;;5.90;4.30;;;;;;;14.47;nan;98254.94;4909557;29;20688;-77
2023/10/30 08:36:01;;;;;;;3.60;3.30;;;;;;;14.48;nan;98251.31;4904905;29;20468;-76
2023/10/30 08:38:27;;;;;;;5.40;4.00;;;;;;;14.51;nan;98240.44;4905843;29;20674;-76
2023/10/30 08:40:52;;;;;;;8.50;4.27;;;;;;;14.51;nan;98245.72;4903360;29;20210;-76
2023/10/30 08:43:17;;;;;;;8.67;5.10;;;;;;;14.48;nan;98238.13;4901091;29;20238;-77
2023/10/30 08:45:43;;;;;;;5.83;4.30;;;;;;;14.44;nan;98242.84;4910876;29;20217;-77
2023/10/30 08:48:11;;;;;;;4.93;3.97;;;;;;;14.42;nan;98249.28;4905995;29;20218;-77
2023/10/30 08:50:36;;;;;;;23.88;5.25;;;;;;;14.42;nan;98239.56;4905114;29;20845;-77
2023/10/30 08:53:03;;;;;;;7.97;4.20;;;;;;;14.44;nan;98242.03;4902373;29;20197;-77
2023/10/30 08:55:28;;;;;;;8.70;4.68;;;;;;;14.46;nan;98238.25;4910727;29;20405;-78
2023/10/30 08:57:53;;;;;;;6.60;4.20;;;;;;;14.42;nan;98228.16;4903202;29;20195;-76
2023/10/30 09:00:19;;;;;;;4.83;3.73;;;;;;;14.39;nan;98227.50;4906161;29;20753;-76
2023/10/30 09:02:44;;;;;;;7.10;4.23;;;;;;;14.32;nan;98229.09;4907903;29;20218;-76
2023/10/30 09:05:10;;;;;;;6.50;4.70;;;;;;;14.25;nan;98225.41;4909015;29;20202;-76
2023/10/30 09:07:35;;;;;;;7.33;4.83;;;;;;;14.25;nan;98219.28;4912295;29;20202;-76
2023/10/30 09:10:01;;;;;;;10.57;6.77;;;;;;;14.21;nan;98208.22;4904057;29;20637;-76
2023/10/30 09:12:26;;;;;;;9.43;6.50;;;;;;;14.21;nan;98208.22;4907615;29;20293;-76
2023/10/30 09:14:52;;;;;;;6.43;4.47;;;;;;;14.22;nan;98201.94;4912798;29;20255;-76
2023/10/30 09:17:18;;;;;;;6.30;4.90;;;;;;;14.25;nan;98196.34;4911961;29;20659;-79
2023/10/30 09:19:44;;;;;;;5.63;4.23;;;;;;;14.26;nan;98187.47;4904143;29;20865;-77
2023/10/30 09:22:09;;;;;;;14.20;6.87;;;;;;;14.34;nan;98192.78;4904442;29;20518;-77
2023/10/30 09:24:34;;;;;;;12.40;8.23;;;;;;;14.46;nan;98197.81;4907538;29;20198;-77
2023/10/30 09:27:00;;;;;;;12.20;8.17;;;;;;;14.58;nan;98199.19;4905941;29;20301;-79
2023/10/30 09:29:25;;;;;;;7.40;5.47;;;;;;;14.65;nan;98189.66;4910506;29;20286;-77
2023/10/30 09:31:51;;;;;;;16.00;8.70;;;;;;;14.70;nan;98187.38;4906324;29;20557;-77
2023/10/30 09:34:16;;;;;;;6.20;4.73;;;;;;;14.70;nan;98181.28;4909275;29;20241;-77
2023/10/30 09:36:43;;;;;;;17.13;8.30;;;;;;;14.68;nan;98180.59;4903197;29;20206;-77
2023/10/30 09:39:09;;;;;;;10.60;7.13;;;;;;;14.62;nan;98174.13;4906562;29;20694;-77
2023/10/30 09:41:43;;;;;;;6.07;4.87;;;;;;;14.61;nan;98167.22;4902825;29;20742;-78
2023/10/30 09:44:10;;;;;;;7.90;4.60;;;;;;;14.58;nan;98172.78;4910462;29;20472;-76
2023/10/30 09:46:38;;;;;;;12.77;6.15;;;;;;;14.59;nan;98169.16;4907964;29;20289;-79
2023/10/30 09:49:04;;;;;;;9.48;6.68;;;;;;;14.62;nan;98168.84;4909347;29;20587;-78
2023/10/30 09:51:30;;;;;;;7.90;5.00;;;;;;;14.60;nan;98160.25;4909702;29;20768;-78
2023/10/30 09:53:58;;;;;;;9.40;6.23;;;;;;;14.53;nan;98157.41;4905179;29;20203;-79
2023/10/30 09:56:25;;;;;;;7.28;5.68;;;;;;;14.56;nan;98164.22;4908183;29;20892;-76
2023/10/30 09:58:51;;;;;;;10.88;6.65;;;;;;;14.59;nan;98164.72;4906065;29;20219;-77
2023/10/30 10:01:18;;;;;;;9.15;6.22;;;;;;;14.61;nan;98167.22;4902615;29;20221;-77
2023/10/30 10:03:44;;;;;;;10.45;7.93;;;;;;;14.66;nan;98164.06;4904806;29;20241;-77
2023/10/30 10:06:10;;;;;;;13.13;9.03;;;;;;;14.66;nan;98161.41;4904514;29;20250;-78
2023/10/30 10:08:35;;;;;;;14.48;8.02;;;;;;;14.63;nan;98159.94;4907580;29;20190;-77
2023/10/30 10:11:02;;;;;;;15.13;10.07;;;;;;;14.65;nan;98149.22;4904790;29;21055;-78
2023/10/30 10:13:33;;;;;;;17.52;11.32;;;;;;;14.69;nan;98145.25;4905251;29;20210;-77
2023/10/30 10:16:00;;;;;;;15.48;11.38;;;;;;;14.64;nan;98145.75;4910778;29;20226;-77
2023/10/30 10:18:35;;;;;;;22.40;12.70;;;;;;;14.65;nan;98138.63;4907223;29;20233;-77
2023/10/30 10:21:08;;;;;;;18.88;12.88;;;;;;;14.63;nan;98128.22;4888160;29;20218;-77
2023/10/30 10:23:35;;;;;;;22.17;17.83;;;;;;;14.67;nan;98128.75;4905490;29;20194;-79
2023/10/30 10:26:03;;;;;;;27.30;19.30;;;;;;;14.72;nan;98126.44;4901743;29;20242;-79
2023/10/30 10:28:29;;;;;;;18.73;12.68;;;;;;;14.76;nan;98123.31;4908386;29;20207;-77
2023/10/30 10:30:55;;;;;;;11.17;8.40;;;;;;;14.78;nan;98121.34;4903452;29;20757;-77
2023/10/30 10:33:29;;;;;;;11.03;7.30;;;;;;;14.81;nan;98130.75;4908426;29;21133;-77
2023/10/30 10:35:57;;;;;;;42.83;28.50;;;;;;;14.83;nan;98121.69;4903987;29;20449;-78
2023/10/30 10:38:23;;;;;;;10.10;8.98;;;;;;;14.87;nan;98119.53;4907203;29;20227;-78
2023/10/30 10:40:50;;;;;;;12.03;8.23;;;;;;;14.89;nan;98109.63;4905804;29;20250;-77
2023/10/30 10:43:18;;;;;;;8.88;6.65;;;;;;;14.91;nan;98117.41;4905552;29;20205;-78
2023/10/30 10:45:46;;;;;;;5.30;4.78;;;;;;;14.94;nan;98125.84;4904870;29;20565;-79
2023/10/30 10:48:12;;;;;;;5.25;4.45;;;;;;;14.94;nan;98125.03;4906783;29;20211;-78
2023/10/30 10:50:37;;;;;;;6.03;5.30;;;;;;;14.96;nan;98123.88;4904278;29;20840;-78
2023/10/30 10:53:04;;;;;;;6.77;5.47;;;;;;;14.97;nan;98080.56;4903918;29;20417;-78
2023/10/30 10:55:34;;;;;;;6.68;5.03;;;;;;;14.99;nan;98109.50;4906425;29;20200;-76
2023/10/30 10:58:12;;;;;;;6.70;4.93;;;;;;;15.00;nan;98104.03;4901797;29;20354;-76
2023/10/30 11:00:46;;;;;;;7.60;5.32;;;;;;;15.04;nan;98086.00;4901680;29;20582;-76
2023/10/30 11:03:12;;;;;;;10.73;5.60;;;;;;;15.09;nan;98075.78;4904310;29;20248;-78
2023/10/30 11:05:38;;;;;;;31.47;7.80;;;;;;;15.16;nan;98076.78;4902312;29;20186;-78
2023/10/30 11:08:20;;;;;;;7.30;5.22;;;;;;;15.25;nan;98065.22;4898196;29;20579;-78
2023/10/30 11:11:12;;;;;;;5.82;4.45;;;;;;;15.30;nan;98056.78;4904383;29;20253;-77
2023/10/30 11:14:06;;;;;;;6.85;4.63;;;;;;;15.34;nan;98058.13;4908473;29;20252;-77
2023/10/30 11:17:00;;;;;;;5.50;3.90;;;;;;;15.38;nan;98048.03;4910544;29;20269;-77
2023/10/30 11:19:28;;;;;;;5.47;3.53;;;;;;;15.44;nan;98036.75;4899035;29;20293;-78
2023/10/30 11:21:54;;;;;;;4.43;3.75;;;;;;;15.54;nan;98026.84;4905277;29;20226;-76
2023/10/30 11:24:43;;;;;;;4.22;3.75;;;;;;;15.65;nan;98025.66;4908658;29;20699;-76
2023/10/30 11:27:27;;;;;;;4.15;3.38;;;;;;;15.70;nan;98021.53;4907926;29;20219;-76
2023/10/30 11:29:56;;;;;;;5.47;4.55;;;;;;;15.77;nan;98018.22;4906840;29;20228;-77
2023/10/30 11:32:23;;;;;;;6.65;3.88;;;;;;;;;;4904431;29;20218;-77
2023/10/30 11:34:49;;;;;;;4.65;3.42;;;;;;;15.91;nan;98002.47;4906517;29;20309;-77
2023/10/30 11:37:19;;;;;;;4.68;3.90;;;;;;;16.02;nan;97997.78;4900233;29;20757;-76
2023/10/30 11:39:45;;;;;;;5.45;3.88;;;;;;;16.09;nan;97999.59;4898075;29;20212;-77
2023/10/30 11:42:28;;;;;;;6.25;3.80;;;;;;;16.13;nan;98000.88;4903774;29;20211;-77
2023/10/30 11:45:28;;;;;;;4.95;4.30;;;;;;;16.13;nan;97995.59;4906917;29;20781;-78
2023/10/30 11:48:06;;;;;;;5.80;5.20;;;;;;;16.19;nan;97998.53;4905139;29;20316;-78